createdAt,value
2018-08-20T00:04:20.044Z,101233.00
2018-08-20T00:10:23.750Z,101235.00
2018-08-20T00:16:27.155Z,101239.00
2018-08-20T00:22:30.685Z,101236.00
2018-08-20T00:28:33.992Z,101246.00
2018-08-20T00:34:38.605Z,101235.00
2018-08-20T00:40:42.628Z,101233.00
2018-08-20T00:46:46.488Z,101235.00
2018-08-20T00:52:50.030Z,101225.00
2018-08-20T00:58:53.738Z,101227.00
2018-08-20T01:04:57.964Z,101220.00
2018-08-20T01:11:01.495Z,101211.00
2018-08-20T01:17:05.177Z,101220.00
2018-08-20T01:23:08.953Z,101211.00
2018-08-20T01:29:12.435Z,101210.00
2018-08-20T01:35:25.207Z,101210.00
2018-08-20T01:41:28.650Z,101221.00
2018-08-20T01:47:32.143Z,101213.00
2018-08-20T01:53:35.689Z,101211.00
2018-08-20T01:59:39.080Z,101202.00
2018-08-20T02:05:42.534Z,101210.00
2018-08-20T02:12:54.977Z,101203.00
2018-08-20T02:18:58.537Z,101203.00
2018-08-20T02:25:01.901Z,101206.00
2018-08-20T02:31:05.638Z,101194.00
2018-08-20T02:37:09.771Z,101205.00
2018-08-20T02:43:13.314Z,101196.00
2018-08-20T02:49:17.410Z,101201.00
2018-08-20T02:55:20.677Z,101189.00
2018-08-20T03:01:24.252Z,101189.00
2018-08-20T03:07:28.801Z,101196.00
2018-08-20T03:13:33.477Z,101186.00
2018-08-20T03:19:37.016Z,101189.00
2018-08-20T03:25:41.115Z,101192.00
2018-08-20T03:31:45.527Z,101211.00
2018-08-20T03:37:49.328Z,101204.00
2018-08-20T03:43:52.915Z,101212.00
2018-08-20T03:49:56.455Z,101213.00
2018-08-20T03:55:59.957Z,101203.00
2018-08-20T04:02:04.762Z,101196.00
2018-08-20T04:08:08.147Z,101198.00
2018-08-20T04:14:11.992Z,101196.00
2018-08-20T04:20:15.637Z,101201.00
2018-08-20T04:26:20.684Z,101198.00
2018-08-20T04:32:24.279Z,101200.00
2018-08-20T04:38:27.646Z,101202.00
2018-08-20T04:44:31.342Z,101197.00
2018-08-20T04:50:35.383Z,101201.00
2018-08-20T04:56:38.911Z,101192.00
2018-08-20T05:02:42.327Z,101207.00
2018-08-20T05:08:46.082Z,101213.00
2018-08-20T05:14:49.683Z,101217.00
2018-08-20T05:20:53.229Z,101221.00
2018-08-20T05:26:56.456Z,101217.00
2018-08-20T05:33:00.638Z,101210.00
2018-08-20T05:39:06.310Z,101221.00
2018-08-20T05:45:11.297Z,101228.00
2018-08-20T05:51:14.840Z,101227.00
2018-08-20T05:57:18.252Z,101235.00
2018-08-20T06:03:22.109Z,101241.00
2018-08-20T06:09:25.664Z,101247.00
2018-08-20T06:15:29.377Z,101248.00
2018-08-20T06:21:33.326Z,101251.00
2018-08-20T06:27:36.991Z,101260.00
2018-08-20T06:33:40.582Z,101280.00
2018-08-20T06:39:44.144Z,101274.00
2018-08-20T06:45:47.833Z,101274.00
2018-08-20T06:51:51.838Z,101276.00
2018-08-20T06:58:02.406Z,101282.00
2018-08-20T07:04:06.176Z,101282.00
2018-08-20T07:10:12.508Z,101289.00
2018-08-20T07:16:16.249Z,101303.00
2018-08-20T07:22:19.587Z,101307.00
2018-08-20T07:28:23.523Z,101315.00
2018-08-20T07:34:27.210Z,101315.00
2018-08-20T07:40:30.794Z,101326.00
2018-08-20T07:46:34.322Z,101316.00
2018-08-20T07:52:38.015Z,101319.00
2018-08-20T07:58:41.539Z,101320.00
2018-08-20T08:04:45.067Z,101340.00
2018-08-20T08:10:49.543Z,101341.00
2018-08-20T08:16:53.135Z,101344.00
2018-08-20T08:22:56.532Z,101334.00
2018-08-20T08:29:00.120Z,101344.00
2018-08-20T08:35:04.116Z,101343.00
2018-08-20T08:41:07.455Z,101338.00
2018-08-20T08:47:10.996Z,101351.00
2018-08-20T08:53:14.719Z,101352.00
2018-08-20T08:59:18.622Z,101345.00
2018-08-20T09:05:27.889Z,101355.00
2018-08-20T09:11:31.515Z,101368.00
2018-08-20T09:17:34.939Z,101367.00
2018-08-20T09:23:38.809Z,101363.00
2018-08-20T09:29:42.322Z,101376.00
2018-08-20T09:35:46.616Z,101371.00
2018-08-20T09:41:50.180Z,101376.00
2018-08-20T09:47:54.397Z,101376.00
2018-08-20T09:53:58.365Z,101380.00
2018-08-20T10:00:02.644Z,101375.00
2018-08-20T10:06:06.727Z,101379.00
2018-08-20T10:12:15.330Z,101367.00
2018-08-20T10:18:19.327Z,101369.00
2018-08-20T10:24:27.320Z,101356.00
2018-08-20T10:30:32.146Z,101365.00
2018-08-20T10:36:37.572Z,101368.00
2018-08-20T10:42:41.785Z,101366.00
2018-08-20T10:48:47.149Z,101368.00
2018-08-20T10:54:51.745Z,101360.00
2018-08-20T11:00:55.461Z,101369.00
2018-08-20T11:07:00.089Z,101352.00
2018-08-20T11:13:04.981Z,101369.00
2018-08-20T11:19:10.984Z,101363.00
2018-08-20T11:25:15.547Z,101357.00
2018-08-20T11:31:20.216Z,101360.00
2018-08-20T11:37:25.074Z,101360.00
2018-08-20T11:43:29.499Z,101344.00
2018-08-20T11:49:35.371Z,101349.00
2018-08-20T11:55:39.603Z,101346.00
2018-08-20T12:01:43.371Z,101336.00
2018-08-20T12:07:48.469Z,101334.00
2018-08-20T12:13:52.754Z,101347.00
2018-08-20T12:19:56.565Z,101348.00
2018-08-20T12:26:01.746Z,101344.00
2018-08-20T12:32:05.514Z,101370.00
2018-08-20T12:38:09.878Z,101365.00
2018-08-20T12:44:13.218Z,101363.00
2018-08-20T12:50:16.621Z,101372.00
2018-08-20T12:56:20.050Z,101368.00
2018-08-20T13:02:23.445Z,101373.00
2018-08-20T13:08:26.832Z,101368.00
2018-08-20T13:14:30.239Z,101359.00
2018-08-20T13:20:34.388Z,101370.00
2018-08-20T13:26:37.932Z,101363.00
2018-08-20T13:32:41.284Z,101367.00
2018-08-20T13:38:44.776Z,101344.00
2018-08-20T13:44:48.315Z,101346.00
2018-08-20T13:50:54.075Z,101347.00
2018-08-20T13:56:57.520Z,101348.00
2018-08-20T14:03:01.062Z,101352.00
2018-08-20T14:09:07.299Z,101346.00
2018-08-20T14:15:12.120Z,101336.00
2018-08-20T14:21:15.879Z,101342.00
2018-08-20T14:27:19.212Z,101341.00
2018-08-20T14:33:22.545Z,101341.00
2018-08-20T14:39:26.271Z,101342.00
2018-08-20T14:45:35.436Z,101335.00
2018-08-20T14:51:38.821Z,101346.00
2018-08-20T14:57:42.190Z,101330.00
2018-08-20T15:03:45.522Z,101336.00
2018-08-20T15:09:49.528Z,101333.00
2018-08-20T15:15:53.287Z,101322.00
2018-08-20T15:21:56.722Z,101329.00
2018-08-20T15:28:02.650Z,101328.00
2018-08-20T15:34:14.989Z,101316.00
2018-08-20T15:40:23.849Z,101313.00
2018-08-20T15:46:27.392Z,101316.00
2018-08-20T15:52:30.990Z,101311.00
2018-08-20T15:58:35.742Z,101318.00
2018-08-20T16:04:39.293Z,101323.00
2018-08-20T16:10:42.755Z,101329.00
2018-08-20T16:16:47.876Z,101322.00
2018-08-20T16:22:51.891Z,101319.00
2018-08-20T16:28:56.413Z,101321.00
2018-08-20T16:35:00.528Z,101319.00
2018-08-20T16:41:04.568Z,101312.00
2018-08-20T16:47:08.142Z,101311.00
2018-08-20T16:53:11.914Z,101313.00
2018-08-20T16:59:15.277Z,101311.00
2018-08-20T17:05:19.842Z,101307.00
2018-08-20T17:11:23.447Z,101322.00
2018-08-20T17:17:27.341Z,101320.00
2018-08-20T17:23:34.485Z,101323.00
2018-08-20T17:29:38.457Z,101322.00
2018-08-20T17:35:43.294Z,101308.00
2018-08-20T17:41:47.439Z,101315.00
2018-08-20T17:47:52.026Z,101329.00
2018-08-20T17:53:59.863Z,101324.00
2018-08-20T18:00:44.303Z,101327.00
2018-08-20T18:06:53.147Z,101328.00
2018-08-20T18:12:56.921Z,101323.00
2018-08-20T18:19:00.813Z,101330.00
2018-08-20T18:25:04.700Z,101356.00
2018-08-20T18:31:11.029Z,101345.00
2018-08-20T18:37:14.497Z,101351.00
2018-08-20T18:43:18.213Z,101375.00
2018-08-20T18:49:22.250Z,101368.00
2018-08-20T18:55:25.927Z,101374.00
2018-08-20T19:01:29.414Z,101375.00
2018-08-20T19:07:32.768Z,101378.00
2018-08-20T19:13:36.195Z,101390.00
2018-08-20T19:19:44.390Z,101393.00
2018-08-20T19:25:48.205Z,101380.00
2018-08-20T19:31:52.243Z,101382.00
2018-08-20T19:37:55.571Z,101378.00
2018-08-20T19:43:59.671Z,101384.00
2018-08-20T19:50:04.877Z,101384.00
2018-08-20T19:56:13.478Z,101378.00
2018-08-20T20:02:19.453Z,101385.00
2018-08-20T20:08:22.868Z,101390.00
2018-08-20T20:14:33.584Z,101397.00
2018-08-20T20:20:37.476Z,101400.00
2018-08-20T20:26:41.767Z,101405.00
2018-08-20T20:32:46.340Z,101401.00
2018-08-20T20:38:50.281Z,101405.00
2018-08-20T20:44:55.029Z,101405.00
2018-08-20T20:50:59.199Z,101412.00
2018-08-20T20:57:03.684Z,101402.00
2018-08-20T21:03:10.282Z,101418.00
2018-08-20T21:09:13.938Z,101422.00
2018-08-20T21:15:17.970Z,101424.00
2018-08-20T21:21:22.301Z,101419.00
2018-08-20T21:27:28.168Z,101427.00
2018-08-20T21:33:33.532Z,101434.00
2018-08-20T21:39:37.383Z,101438.00
2018-08-20T21:45:40.944Z,101439.00
2018-08-20T21:51:50.172Z,101445.00
2018-08-20T21:57:57.264Z,101446.00
2018-08-20T22:04:03.929Z,101439.00
2018-08-20T22:10:08.591Z,101440.00
2018-08-20T22:16:18.030Z,101441.00
2018-08-20T22:22:25.149Z,101453.00
2018-08-20T22:28:28.594Z,101446.00
2018-08-20T22:34:31.920Z,101441.00
2018-08-20T22:40:35.355Z,101443.00
2018-08-20T22:46:38.793Z,101441.00
2018-08-20T22:52:43.984Z,101441.00
2018-08-20T22:58:48.545Z,101446.00
2018-08-20T23:04:57.337Z,101450.00
2018-08-20T23:11:00.939Z,101446.00
2018-08-20T23:17:04.447Z,101440.00
2018-08-20T23:23:07.848Z,101445.00
2018-08-20T23:29:11.515Z,101452.00
2018-08-20T23:35:15.103Z,101459.00
2018-08-20T23:41:18.470Z,101453.00
2018-08-20T23:47:21.863Z,101465.00
2018-08-20T23:53:25.770Z,101458.00
2018-08-20T23:59:29.026Z,101461.00
